Time;durP1;ratioP1;P1;durP2;ratioP2;P2;SDS_P1;SDS_P2;PMS_P1;PMS_P2;Temp;Humidity;BMP_temperature;BMP_pressure;BME280_temperature;BME280_humidity;BME280_pressure;Samples;Min_cycle;Max_cycle;Signal;HPM_P1;HPM_P2
2022/12/28 00:00:05;;;;;;;6.90;3.05;;;6.30;99.90;;;;;;5004647;28;20040;-76
2022/12/28 00:02:30;;;;;;;8.80;3.28;;;6.00;99.90;;;;;;5006428;28;20403;-76
2022/12/28 00:04:56;;;;;;;4.90;2.93;;;6.00;99.90;;;;;;5006206;28;20068;-76
2022/12/28 00:07:21;;;;;;;8.53;2.90;;;6.00;99.90;;;;;;5001585;28;20769;-76
2022/12/28 00:09:47;;;;;;;6.47;3.10;;;5.90;99.90;;;;;;4987928;28;20504;-76
2022/12/28 00:12:13;;;;;;;9.20;3.60;;;5.90;99.90;;;;;;4982903;28;20309;-76
2022/12/28 00:14:38;;;;;;;7.75;3.30;;;5.80;99.90;;;;;;5017889;28;20065;-76
2022/12/28 00:17:04;;;;;;;7.83;3.40;;;5.80;99.90;;;;;;5008332;28;20065;-76
2022/12/28 00:19:30;;;;;;;3.17;2.40;;;5.80;99.90;;;;;;5003852;28;20289;-76
2022/12/28 00:21:55;;;;;;;8.10;3.58;;;5.90;99.90;;;;;;5016398;28;20117;-76
2022/12/28 00:24:23;;;;;;;10.93;3.88;;;6.30;99.90;;;;;;5013793;28;20038;-76
2022/12/28 00:26:49;;;;;;;7.15;3.33;;;5.80;99.90;;;;;;4991440;28;20083;-76
2022/12/28 00:29:15;;;;;;;9.82;3.72;;;5.80;99.90;;;;;;5003976;28;20129;-77
2022/12/28 00:31:41;;;;;;;8.20;4.32;;;5.80;99.90;;;;;;5001198;28;20565;-77
2022/12/28 00:34:07;;;;;;;8.45;3.58;;;5.70;99.90;;;;;;5011052;28;20120;-77
2022/12/28 00:36:33;;;;;;;10.33;3.87;;;5.70;99.90;;;;;;5002057;28;20091;-77
2022/12/28 00:38:58;;;;;;;6.75;3.60;;;6.00;99.90;;;;;;5003120;28;20384;-77
2022/12/28 00:41:24;;;;;;;9.25;4.25;;;5.70;99.90;;;;;;5006656;28;20051;-77
2022/12/28 00:43:50;;;;;;;11.18;3.47;;;5.80;99.90;;;;;;4999234;28;20048;-77
2022/12/28 00:46:16;;;;;;;6.63;3.03;;;6.00;99.90;;;;;;5006396;28;20049;-77
2022/12/28 00:48:42;;;;;;;9.75;3.50;;;5.80;99.90;;;;;;5014585;28;20084;-78
2022/12/28 00:51:15;;;;;;;7.43;4.22;;;5.90;99.90;;;;;;5003915;28;20127;-77
2022/12/28 00:53:41;;;;;;;8.68;3.72;;;5.80;99.90;;;;;;5022664;28;20037;-78
2022/12/28 00:56:08;;;;;;;;;;;5.90;99.90;;;;;;5021646;28;20076;-78
2022/12/28 00:58:34;;;;;;;7.80;3.78;;;5.90;99.90;;;;;;5018860;28;20438;-78
2022/12/28 01:01:00;;;;;;;10.05;3.70;;;5.80;99.90;;;;;;4982316;28;20161;-78
2022/12/28 01:03:26;;;;;;;8.02;4.43;;;5.80;99.90;;;;;;5024722;28;20045;-77
2022/12/28 01:05:52;;;;;;;9.68;4.30;;;5.90;99.90;;;;;;5024082;28;20565;-78
2022/12/28 01:08:17;;;;;;;11.55;4.05;;;5.90;99.90;;;;;;5003231;28;20494;-77
2022/12/28 01:10:43;;;;;;;9.07;3.55;;;6.00;99.90;;;;;;5002780;28;20046;-77
2022/12/28 01:13:09;;;;;;;8.68;4.10;;;6.40;99.90;;;;;;5007741;28;20450;-77
2022/12/28 01:15:34;;;;;;;8.63;4.53;;;6.00;99.90;;;;;;4989363;28;20033;-77
2022/12/28 01:18:01;;;;;;;9.47;4.47;;;6.00;99.90;;;;;;4999606;28;20688;-77
2022/12/28 01:20:26;;;;;;;;;;;6.30;99.90;;;;;;5000109;28;20285;-77
2022/12/28 01:22:52;;;;;;;8.48;4.13;;;6.00;99.90;;;;;;5001660;28;19971;-77
2022/12/28 01:25:18;;;;;;;8.43;3.92;;;6.00;99.90;;;;;;4999255;28;20409;-77
2022/12/28 01:27:43;;;;;;;9.35;4.35;;;5.90;99.90;;;;;;5013991;28;20038;-77
2022/12/28 01:30:12;;;;;;;9.93;4.70;;;6.20;99.90;;;;;;5020900;28;20044;-77
2022/12/28 01:32:38;;;;;;;7.20;3.90;;;5.90;99.90;;;;;;4998462;28;20379;-77
2022/12/28 01:35:04;;;;;;;10.07;3.97;;;5.90;99.90;;;;;;5025911;28;20037;-77
2022/12/28 01:37:30;;;;;;;5.10;3.45;;;6.00;99.90;;;;;;5002511;28;20091;-77
2022/12/28 01:39:55;;;;;;;7.73;4.27;;;6.00;99.90;;;;;;4999338;28;20037;-77
2022/12/28 01:42:21;;;;;;;9.23;4.28;;;6.00;99.90;;;;;;4984126;28;20395;-77
2022/12/28 01:44:49;;;;;;;10.00;4.78;;;5.90;99.90;;;;;;5001183;28;20049;-77
2022/12/28 01:47:25;;;;;;;9.70;4.43;;;5.90;99.90;;;;;;5021779;28;20042;-76
2022/12/28 01:50:08;;;;;;;16.05;4.45;;;6.00;99.90;;;;;;5019813;28;20041;-76
2022/12/28 01:52:46;;;;;;;12.23;4.40;;;6.00;99.90;;;;;;5020271;28;20128;-76
2022/12/28 01:55:21;;;;;;;8.73;4.45;;;6.00;99.90;;;;;;5015830;28;20037;-77
2022/12/28 01:57:56;;;;;;;7.57;4.80;;;6.20;99.90;;;;;;5023309;28;20053;-77
2022/12/28 02:00:22;;;;;;;7.00;4.35;;;6.20;99.90;;;;;;5022561;28;20056;-76
2022/12/28 02:02:55;;;;;;;10.83;4.57;;;5.90;99.90;;;;;;4999116;28;20506;-76
2022/12/28 02:05:24;;;;;;;6.60;4.45;;;5.90;99.90;;;;;;5016526;28;20636;-76
2022/12/28 02:08:06;;;;;;;6.95;3.90;;;6.00;99.90;;;;;;5014868;28;20037;-76
2022/12/28 02:10:35;;;;;;;10.95;4.85;;;6.20;99.90;;;;;;5023971;28;20042;-76
2022/12/28 02:13:02;;;;;;;8.40;4.10;;;6.20;99.90;;;;;;5000755;28;20474;-76
2022/12/28 02:15:27;;;;;;;;;;;6.30;99.90;;;;;;5019344;28;20037;-76
2022/12/28 02:17:53;;;;;;;8.65;4.45;;;6.10;99.90;;;;;;5018627;28;20289;-76
2022/12/28 02:20:19;;;;;;;8.77;4.72;;;6.10;99.90;;;;;;5018170;28;20060;-76
2022/12/28 02:23:19;;;;;;;8.02;4.32;;;6.10;99.90;;;;;;5004649;28;20053;-76
2022/12/28 02:26:18;;;;;;;11.05;4.72;;;6.00;99.90;;;;;;5008591;28;20055;-75
2022/12/28 02:29:25;;;;;;;11.32;5.63;;;5.90;99.90;;;;;;5020605;28;20061;-76
2022/12/28 02:32:01;;;;;;;11.38;5.22;;;6.00;99.90;;;;;;5019774;28;20391;-75
2022/12/28 02:34:48;;;;;;;10.75;6.25;;;5.90;99.90;;;;;;5020159;28;20077;-75
2022/12/28 02:37:20;;;;;;;;;;;5.90;99.90;;;;;;5023725;28;20041;-75
2022/12/28 02:39:49;;;;;;;;;;;5.90;99.90;;;;;;5020480;28;19917;-76
2022/12/28 02:42:15;;;;;;;;;;;6.10;99.90;;;;;;5020003;28;19963;-76
2022/12/28 02:50:11;;;;;;;;;;;6.30;99.90;;;;;;5012537;28;19975;-75
2022/12/28 02:52:55;;;;;;;;;;;6.20;99.90;;;;;;5025716;28;19921;-75
2022/12/28 02:58:30;;;;;;;;;;;6.00;99.90;;;;;;5022019;28;20357;-75
2022/12/28 03:01:14;;;;;;;;;;;6.00;99.90;;;;;;5022024;28;19917;-75
2022/12/28 03:03:45;;;;;;;;;;;6.00;99.90;;;;;;5025015;28;19921;-75
2022/12/28 03:09:27;;;;;;;;;;;6.10;99.90;;;;;;5020028;28;19932;-75
2022/12/28 03:11:56;;;;;;;;;;;6.10;99.90;;;;;;5002804;28;20332;-76
2022/12/28 03:14:35;;;;;;;;;;;6.20;99.90;;;;;;5024296;28;20258;-76
2022/12/28 03:31:06;;;;;;;;;;;6.40;99.90;;;;;;5021210;28;19932;-76
2022/12/28 03:33:37;;;;;;;;;;;6.50;99.90;;;;;;4996108;28;19917;-76
2022/12/28 03:36:03;;;;;;;;;;;6.50;99.90;;;;;;5009678;28;19917;-76
2022/12/28 03:38:33;;;;;;;;;;;6.50;99.90;;;;;;5026437;28;19939;-76
2022/12/28 03:41:07;;;;;;;;;;;6.60;99.90;;;;;;5020812;28;19927;-76
2022/12/28 03:43:59;;;;;;;;;;;6.70;99.90;;;;;;5020399;28;20016;-77
2022/12/28 03:46:35;;;;;;;;;;;6.80;99.90;;;;;;5001610;28;19932;-77
2022/12/28 03:49:01;;;;;;;;;;;6.80;99.90;;;;;;5021968;28;20276;-77
2022/12/28 03:51:28;;;;;;;;;;;7.00;99.90;;;;;;5002217;28;20007;-77
2022/12/28 03:53:54;;;;;;;;;;;6.80;99.90;;;;;;5023766;28;20003;-77
2022/12/28 03:56:22;;;;;;;;;;;8.70;99.90;;;;;;5002946;28;20039;-77
2022/12/28 03:58:48;;;;;;;;;;;7.10;99.90;;;;;;5018753;28;20385;-77
2022/12/28 04:01:14;;;;;;;;;;;6.90;99.90;;;;;;5004504;28;19931;-77
2022/12/28 04:03:39;;;;;;;;;;;7.10;99.90;;;;;;5020070;28;19917;-77
2022/12/28 04:06:05;;;;;;;;;;;7.00;99.90;;;;;;5002862;28;19923;-77
2022/12/28 04:08:31;;;;;;;;;;;6.90;99.90;;;;;;5012050;28;19920;-77
2022/12/28 04:10:57;;;;;;;;;;;6.90;99.90;;;;;;5020371;28;19924;-76
2022/12/28 04:13:23;;;;;;;;;;;7.00;99.90;;;;;;5002459;28;20311;-77
2022/12/28 04:15:59;;;;;;;;;;;7.00;99.90;;;;;;5004872;28;20040;-77
2022/12/28 04:18:25;;;;;;;;;;;7.00;99.90;;;;;;5021833;28;19944;-76
2022/12/28 04:20:51;;;;;;;;;;;7.00;99.90;;;;;;5006360;28;20023;-76
2022/12/28 04:23:16;;;;;;;;;;;7.00;99.90;;;;;;5023025;28;19921;-77
2022/12/28 04:25:42;;;;;;;;;;;6.90;99.90;;;;;;5006840;28;19967;-76
2022/12/28 04:28:07;;;;;;;;;;;7.00;99.90;;;;;;5017642;28;19921;-77
2022/12/28 04:30:33;;;;;;;;;;;6.90;99.90;;;;;;5026055;28;20289;-74
2022/12/28 04:32:58;;;;;;;;;;;7.00;99.90;;;;;;5025368;28;19944;-77
2022/12/28 04:35:24;;;;;;;;;;;7.00;99.90;;;;;;5022178;28;19959;-77
2022/12/28 04:37:49;;;;;;;;;;;7.00;99.90;;;;;;5018309;28;19917;-77
2022/12/28 04:40:15;;;;;;;;;;;7.20;99.90;;;;;;5017435;28;19969;-75
2022/12/28 04:42:40;;;;;;;;;;;7.10;99.90;;;;;;5019330;28;20249;-75
2022/12/28 04:45:06;;;;;;;;;;;7.10;99.90;;;;;;5018193;28;19986;-75
2022/12/28 04:47:32;;;;;;;;;;;7.10;99.90;;;;;;5019710;28;19924;-75
2022/12/28 04:49:57;;;;;;;;;;;7.10;99.90;;;;;;5019399;28;19917;-76
2022/12/28 04:52:23;;;;;;;;;;;7.30;99.90;;;;;;5021695;28;19925;-76
2022/12/28 04:54:48;;;;;;;;;;;7.20;99.90;;;;;;5019302;28;19925;-76
2022/12/28 04:57:14;;;;;;;;;;;7.20;99.90;;;;;;5019441;28;19924;-76
2022/12/28 04:59:40;;;;;;;;;;;7.20;99.90;;;;;;5020699;28;19957;-76
2022/12/28 05:02:06;;;;;;;;;;;7.20;99.90;;;;;;5002816;28;19917;-76
2022/12/28 05:04:32;;;;;;;;;;;7.20;99.90;;;;;;5017514;28;19917;-76
2022/12/28 05:06:57;;;;;;;;;;;7.30;99.90;;;;;;5000097;28;19937;-76
2022/12/28 05:09:23;;;;;;;;;;;7.30;99.90;;;;;;5018519;28;19924;-76
2022/12/28 05:11:49;;;;;;;;;;;7.20;99.90;;;;;;5022435;28;20381;-76
2022/12/28 05:14:14;;;;;;;;;;;7.50;99.90;;;;;;5021829;28;19967;-74
2022/12/28 05:16:40;;;;;;;;;;;7.30;99.90;;;;;;5015244;28;19956;-77
2022/12/28 05:19:05;;;;;;;;;;;7.30;99.90;;;;;;5018999;28;19922;-75
2022/12/28 05:21:31;;;;;;;;;;;7.30;99.90;;;;;;5022729;28;19925;-75
2022/12/28 05:23:57;;;;;;;;;;;7.40;99.90;;;;;;5014498;28;19940;-75
2022/12/28 05:26:24;;;;;;;;;;;7.40;99.90;;;;;;5016894;28;19917;-75
2022/12/28 05:28:49;;;;;;;;;;;7.50;99.90;;;;;;5007066;28;19918;-75
2022/12/28 05:31:16;;;;;;;;;;;7.40;99.90;;;;;;5013118;28;19967;-75
2022/12/28 05:33:42;;;;;;;;;;;7.40;99.90;;;;;;5019616;28;19983;-75
2022/12/28 05:36:09;;;;;;;;;;;7.50;99.90;;;;;;5000839;28;20004;-75
2022/12/28 05:38:35;;;;;;;;;;;7.50;99.90;;;;;;5019640;28;19917;-75
2022/12/28 05:41:08;;;;;;;;;;;7.50;99.90;;;;;;5002575;28;19925;-76
2022/12/28 05:43:34;;;;;;;;;;;7.60;99.90;;;;;;5019692;28;19924;-77
2022/12/28 05:46:07;;;;;;;;;;;7.60;99.90;;;;;;5012301;28;19917;-76
2022/12/28 05:48:33;;;;;;;;;;;7.70;99.90;;;;;;5020019;28;19921;-76
2022/12/28 05:51:00;;;;;;;;;;;7.80;99.90;;;;;;5022711;28;20333;-77
2022/12/28 05:53:26;;;;;;;;;;;7.70;99.90;;;;;;5005873;28;19917;-77
2022/12/28 05:55:52;;;;;;;;;;;7.70;99.90;;;;;;5017483;28;19917;-77
2022/12/28 05:58:18;;;;;;;;;;;7.70;99.90;;;;;;5025970;28;19913;-77
2022/12/28 06:00:43;;;;;;;;;;;7.60;99.90;;;;;;5023973;28;19917;-77
2022/12/28 06:03:09;;;;;;;;;;;7.60;99.90;;;;;;5025420;28;19920;-77
2022/12/28 06:05:34;;;;;;;;;;;7.60;99.90;;;;;;5023344;28;20293;-77
2022/12/28 06:08:00;;;;;;;;;;;8.50;99.90;;;;;;5021637;28;19917;-77
2022/12/28 06:10:25;;;;;;;;;;;7.70;99.90;;;;;;5023302;28;19925;-78
2022/12/28 06:12:51;;;;;;;;;;;7.60;99.90;;;;;;5018105;28;20012;-77
2022/12/28 06:15:16;;;;;;;;;;;7.70;99.90;;;;;;5022774;28;19928;-77
2022/12/28 06:17:42;;;;;;;;;;;7.80;99.90;;;;;;5001920;28;19922;-78
2022/12/28 06:20:08;;;;;;;;;;;8.00;99.90;;;;;;5017869;28;19968;-78
2022/12/28 06:22:34;;;;;;;;;;;7.80;99.90;;;;;;5019486;28;20354;-78
2022/12/28 06:25:00;;;;;;;;;;;7.80;99.90;;;;;;5011871;28;19917;-78
2022/12/28 06:27:26;;;;;;;;;;;7.80;99.90;;;;;;5004360;28;19924;-78
2022/12/28 06:29:51;;;;;;;;;;;7.80;99.90;;;;;;5007031;28;20336;-79
2022/12/28 06:32:17;;;;;;;;;;;7.80;99.90;;;;;;5006154;28;19948;-76
2022/12/28 06:34:42;;;;;;;;;;;7.90;99.90;;;;;;5023348;28;20047;-79
2022/12/28 06:37:08;;;;;;;;;;;8.00;99.90;;;;;;5027659;28;20274;-76
2022/12/28 06:39:33;;;;;;;;;;;8.10;99.90;;;;;;5022760;28;19921;-79
2022/12/28 06:41:59;;;;;;;;;;;8.00;99.90;;;;;;5015700;28;19928;-78
2022/12/28 06:44:24;;;;;;;;;;;8.10;99.90;;;;;;5008268;28;20003;-78
2022/12/28 06:46:50;;;;;;;;;;;8.40;99.90;;;;;;5017750;28;20296;-78
2022/12/28 06:49:15;;;;;;;;;;;8.10;99.90;;;;;;5017371;28;20336;-78
2022/12/28 06:51:41;;;;;;;;;;;8.10;99.90;;;;;;5024937;28;19921;-78
2022/12/28 06:54:07;;;;;;;;;;;8.20;99.90;;;;;;5015258;28;19918;-78
2022/12/28 06:56:33;;;;;;;;;;;8.20;99.90;;;;;;5025135;28;19917;-78
2022/12/28 06:58:59;;;;;;;;;;;8.20;99.90;;;;;;5008677;28;19923;-78
2022/12/28 07:01:27;;;;;;;;;;;8.20;99.90;;;;;;5006036;28;19925;-78
2022/12/28 07:03:53;;;;;;;;;;;8.10;99.90;;;;;;5018186;28;20270;-78
2022/12/28 07:06:20;;;;;;;;;;;8.20;99.90;;;;;;5025616;28;19917;-78
2022/12/28 07:08:46;;;;;;;;;;;8.30;99.90;;;;;;5027442;28;19917;-78
2022/12/28 07:11:14;;;;;;;;;;;8.20;99.90;;;;;;5021009;28;20475;-78
2022/12/28 07:13:40;;;;;;;;;;;8.20;99.90;;;;;;5025159;28;20008;-78
2022/12/28 07:16:07;;;;;;;;;;;8.30;99.90;;;;;;5021732;28;19924;-78
2022/12/28 07:18:32;;;;;;;;;;;8.20;99.90;;;;;;5007794;28;19928;-78
2022/12/28 07:21:02;;;;;;;;;;;8.30;99.90;;;;;;5020621;28;20301;-78
2022/12/28 07:23:30;;;;;;;;;;;8.30;99.90;;;;;;5015373;28;19927;-78
2022/12/28 07:26:03;;;;;;;;;;;8.20;99.90;;;;;;5031864;28;20004;-78
2022/12/28 07:28:29;;;;;;;;;;;8.20;99.90;;;;;;5017996;28;20083;-78
2022/12/28 07:30:54;;;;;;;;;;;8.30;99.90;;;;;;5002119;28;19999;-78
2022/12/28 07:33:20;;;;;;;;;;;8.30;99.90;;;;;;5022066;28;19924;-80
2022/12/28 07:35:45;;;;;;;;;;;8.30;99.90;;;;;;5022615;28;19917;-81
2022/12/28 07:38:11;;;;;;;;;;;8.30;99.90;;;;;;5005233;28;19972;-80
2022/12/28 07:40:37;;;;;;;;;;;8.50;99.90;;;;;;5010148;28;20361;-80
2022/12/28 07:43:02;;;;;;;;;;;8.40;99.90;;;;;;5017737;28;19917;-83
2022/12/28 07:45:28;;;;;;;;;;;8.40;99.90;;;;;;5004965;28;20348;-80
2022/12/28 07:47:53;;;;;;;;;;;8.50;99.90;;;;;;5004464;28;19917;-80
2022/12/28 07:50:19;;;;;;;;;;;8.50;99.90;;;;;;5003074;28;19917;-81
2022/12/28 07:52:44;;;;;;;;;;;8.60;99.90;;;;;;5005856;28;20012;-79
2022/12/28 07:55:10;;;;;;;;;;;8.60;99.90;;;;;;5008289;28;20377;-79
2022/12/28 07:57:35;;;;;;;;;;;8.60;99.90;;;;;;5021144;28;20395;-79
2022/12/28 08:00:02;;;;;;;;;;;8.70;99.90;;;;;;4989365;28;19924;-78
2022/12/28 08:02:28;;;;;;;;;;;8.70;99.90;;;;;;5029020;28;19964;-79
2022/12/28 08:04:53;;;;;;;;;;;8.80;99.90;;;;;;5006147;28;19928;-81
2022/12/28 08:07:19;;;;;;;;;;;8.80;99.90;;;;;;5008700;28;19964;-79
2022/12/28 08:09:44;;;;;;;;;;;8.80;99.90;;;;;;5025185;28;20011;-80
2022/12/28 08:12:10;;;;;;;;;;;8.80;99.90;;;;;;5003376;28;19921;-79
2022/12/28 08:14:37;;;;;;;;;;;8.80;99.90;;;;;;5023205;28;20407;-79
2022/12/28 08:17:02;;;;;;;;;;;8.50;99.90;;;;;;5010578;28;19924;-79
2022/12/28 08:19:28;;;;;;;;;;;8.80;99.90;;;;;;5021708;28;19930;-81
2022/12/28 08:21:53;;;;;;;;;;;8.80;99.90;;;;;;4993861;28;20344;-83
2022/12/28 08:24:19;;;;;;;;;;;8.80;99.90;;;;;;5010250;28;20312;-83
2022/12/28 08:26:46;;;;;;;;;;;8.70;99.90;;;;;;4991912;28;19923;-83
2022/12/28 08:29:13;;;;;;;;;;;8.80;99.90;;;;;;5023085;28;19993;-80
2022/12/28 08:31:40;;;;;;;;;;;8.80;99.90;;;;;;5024464;28;19972;-79
2022/12/28 08:34:07;;;;;;;;;;;8.80;99.90;;;;;;5026989;28;19947;-80
2022/12/28 08:36:32;;;;;;;;;;;8.80;99.90;;;;;;4989086;28;19917;-80
2022/12/28 08:38:59;;;;;;;;;;;8.80;99.90;;;;;;5018330;28;19921;-81
2022/12/28 08:41:25;;;;;;;;;;;8.80;99.90;;;;;;5017182;28;19918;-80
2022/12/28 08:43:51;;;;;;;;;;;8.80;99.90;;;;;;5023023;28;19929;-80
2022/12/28 08:46:18;;;;;;;;;;;8.80;99.90;;;;;;5020901;28;19959;-80
2022/12/28 08:48:44;;;;;;;;;;;8.90;99.90;;;;;;5020804;28;19917;-80
2022/12/28 08:51:20;;;;;;;;;;;8.90;99.90;;;;;;5020193;28;19947;-80
2022/12/28 08:53:46;;;;;;;;;;;8.90;99.90;;;;;;5021066;28;19961;-80
2022/12/28 08:56:13;;;;;;;;;;;8.90;99.90;;;;;;5004640;28;20091;-80
2022/12/28 08:58:39;;;;;;;;;;;8.90;99.90;;;;;;5018241;28;19921;-80
2022/12/28 09:01:25;;;;;;;;;;;8.90;99.90;;;;;;5023669;28;19981;-80
2022/12/28 09:03:51;;;;;;;;;;;8.90;99.90;;;;;;5022791;28;19936;-79
2022/12/28 09:06:19;;;;;;;;;;;8.80;99.90;;;;;;5034008;28;19921;-79
2022/12/28 09:08:47;;;;;;;;;;;8.90;99.90;;;;;;5022740;28;19925;-79
2022/12/28 09:11:13;;;;;;;;;;;8.90;99.90;;;;;;5004514;28;19929;-79
2022/12/28 09:13:39;;;;;;;;;;;8.90;99.90;;;;;;5019608;28;19917;-79
2022/12/28 09:16:06;;;;;;;;;;;8.90;99.90;;;;;;5023378;28;19924;-79
2022/12/28 09:18:32;;;;;;;;;;;9.00;99.90;;;;;;5020209;28;19932;-79
2022/12/28 09:21:05;;;;;;;;;;;8.90;99.90;;;;;;5004914;28;19928;-79
2022/12/28 09:23:30;;;;;;;;;;;8.90;99.90;;;;;;5020610;28;19924;-79
2022/12/28 09:26:01;;;;;;;;;;;8.90;99.90;;;;;;4987103;28;19917;-80
2022/12/28 09:28:27;;;;;;;;;;;9.00;99.90;;;;;;5005371;28;19917;-80
2022/12/28 09:30:53;;;;;;;;;;;9.00;99.90;;;;;;5004052;28;19917;-80
2022/12/28 09:36:03;;;;;;;;;;;8.90;99.90;;;;;;5007363;28;19970;-80
2022/12/28 09:38:29;;;;;;;;;;;9.00;99.90;;;;;;5002872;28;20327;-80
2022/12/28 09:40:56;;;;;;;;;;;9.00;99.90;;;;;;5019613;28;19966;-80
2022/12/28 09:43:21;;;;;;;;;;;8.90;99.90;;;;;;5004207;28;20350;-80
2022/12/28 09:45:47;;;;;;;;;;;8.90;99.90;;;;;;5003941;28;19923;-80
2022/12/28 09:48:15;;;;;;;;;;;8.90;99.90;;;;;;5003994;28;19916;-80
2022/12/28 09:50:42;;;;;;;;;;;8.90;99.90;;;;;;5023888;28;19917;-80
2022/12/28 09:53:25;;;;;;;;;;;8.90;99.90;;;;;;5018186;28;19921;-80
2022/12/28 09:55:54;;;;;;;;;;;8.90;99.90;;;;;;5023400;28;20371;-80
2022/12/28 09:58:20;;;;;;;;;;;8.90;99.90;;;;;;5004933;28;19921;-80
2022/12/28 10:00:45;;;;;;;;;;;8.90;99.90;;;;;;5022205;28;19917;-80
2022/12/28 10:03:14;;;;;;;;;;;8.90;99.90;;;;;;5017898;28;20401;-80
2022/12/28 10:05:39;;;;;;;;;;;8.90;99.90;;;;;;5001976;28;20332;-80
2022/12/28 10:08:05;;;;;;;;;;;8.90;99.90;;;;;;5018634;28;19917;-80
2022/12/28 10:10:31;;;;;;;;;;;8.90;99.90;;;;;;5001023;28;19973;-80
2022/12/28 10:12:57;;;;;;;;;;;8.90;99.90;;;;;;5005949;28;19921;-80
2022/12/28 10:15:26;;;;;;;;;;;9.00;99.90;;;;;;5019634;28;19940;-80
2022/12/28 10:17:51;;;;;;;;;;;8.90;99.90;;;;;;5003614;28;19924;-80
2022/12/28 10:20:21;;;;;;;;;;;8.90;99.90;;;;;;5019633;28;19922;-79
2022/12/28 10:22:51;;;;;;;;;;;9.00;99.90;;;;;;5017623;28;19927;-79
2022/12/28 10:25:19;;;;;;;;;;;9.00;99.90;;;;;;5002403;28;19917;-79
2022/12/28 10:27:44;;;;;;;;;;;9.00;99.90;;;;;;5022174;28;19940;-79
2022/12/28 10:30:25;;;;;;;;;;;9.00;99.90;;;;;;5016897;28;19925;-79
2022/12/28 10:32:54;;;;;;;;;;;9.00;99.90;;;;;;5003045;28;19922;-79
2022/12/28 10:35:24;;;;;;;;;;;9.10;99.90;;;;;;5022266;28;20008;-79
2022/12/28 10:37:50;;;;;;;;;;;9.10;99.90;;;;;;5019260;28;19917;-78
2022/12/28 10:40:22;;;;;;;;;;;9.10;99.90;;;;;;5021655;28;19987;-79
2022/12/28 10:42:50;;;;;;;;;;;9.10;99.90;;;;;;5023088;28;20007;-78
2022/12/28 10:45:18;;;;;;;;;;;9.00;99.90;;;;;;5022433;28;19946;-78
2022/12/28 10:47:48;;;;;;;;;;;9.00;99.90;;;;;;5022961;28;19917;-79
2022/12/28 10:50:32;;;;;;;;;;;9.00;99.90;;;;;;5024728;28;19917;-79
2022/12/28 10:52:58;;;;;;;;;;;9.00;99.90;;;;;;5009128;28;19940;-79
2022/12/28 10:55:33;;;;;;;;;;;9.10;99.90;;;;;;5023431;28;19917;-79
2022/12/28 10:58:15;;;;;;;;;;;9.10;99.90;;;;;;5025588;28;19921;-79
2022/12/28 11:00:41;;;;;;;;;;;9.10;99.90;;;;;;5021267;28;19968;-79
2022/12/28 11:03:17;;;;;;;;;;;9.20;99.90;;;;;;5024147;28;20014;-78
2022/12/28 11:05:43;;;;;;;;;;;9.20;99.90;;;;;;5007191;28;19965;-79
2022/12/28 11:08:11;;;;;;;;;;;9.20;99.90;;;;;;5024045;28;19957;-78
2022/12/28 11:10:39;;;;;;;;;;;9.30;99.90;;;;;;5023187;28;20297;-79
2022/12/28 11:13:08;;;;;;;;;;;9.30;99.90;;;;;;5023077;28;19928;-79
2022/12/28 11:15:34;;;;;;;;;;;9.30;99.90;;;;;;5007975;28;19928;-79
2022/12/28 11:18:01;;;;;;;;;;;9.30;99.90;;;;;;5025365;28;19917;-79
2022/12/28 11:20:32;;;;;;;;;;;9.30;99.90;;;;;;5003794;28;20019;-78
2022/12/28 11:22:58;;;;;;;;;;;9.30;99.90;;;;;;5018489;28;19924;-77
2022/12/28 11:25:27;;;;;;;;;;;9.30;99.90;;;;;;5020180;28;20297;-78
2022/12/28 11:27:53;;;;;;;;;;;9.40;99.90;;;;;;5022860;28;19925;-79
2022/12/28 11:30:19;;;;;;;;;;;9.40;99.90;;;;;;5004697;28;20313;-80
2022/12/28 11:32:52;;;;;;;;;;;9.40;99.90;;;;;;5023196;28;19999;-80
2022/12/28 11:35:19;;;;;;;;;;;9.30;99.90;;;;;;5019841;28;20380;-78
2022/12/28 11:37:49;;;;;;;;;;;9.40;99.90;;;;;;5023246;28;19917;-79
2022/12/28 11:40:34;;;;;;;;;;;9.40;99.90;;;;;;5004087;28;20408;-79
2022/12/28 11:42:59;;;;;;;;;;;9.40;99.90;;;;;;5023654;28;20016;-79
2022/12/28 11:45:44;;;;;;;;;;;9.30;99.90;;;;;;5006231;28;20358;-79
2022/12/28 11:48:32;;;;;;;;;;;9.30;99.90;;;;;;5004191;28;19932;-79
2022/12/28 11:51:02;;;;;;;;;;;9.30;99.90;;;;;;4980095;28;19929;-79
2022/12/28 11:53:31;;;;;;;;;;;9.30;99.90;;;;;;5005616;28;19928;-80
2022/12/28 11:55:59;;;;;;;;;;;9.40;99.90;;;;;;5008116;28;19972;-80
2022/12/28 11:58:40;;;;;;;;;;;9.50;99.90;;;;;;5024665;28;20019;-80
2022/12/28 12:01:24;;;;;;;;;;;9.40;99.90;;;;;;5001456;28;19920;-80
2022/12/28 12:03:56;;;;;;;;;;;9.30;99.90;;;;;;5003592;28;19959;-79
2022/12/28 12:06:40;;;;;;;;;;;9.30;99.90;;;;;;5007704;28;20012;-80
2022/12/28 12:09:21;;;;;;;;;;;9.30;99.90;;;;;;5000962;28;19956;-80
2022/12/28 12:11:57;;;;;;;;;;;9.40;99.90;;;;;;5003355;28;20395;-77
2022/12/28 12:14:27;;;;;;;;;;;9.40;99.90;;;;;;5020544;28;20385;-80
2022/12/28 12:17:01;;;;;;;;;;;9.30;99.90;;;;;;5022105;28;19944;-78
2022/12/28 12:19:30;;;;;;;;;;;9.30;99.90;;;;;;5003206;28;19925;-78
2022/12/28 12:21:59;;;;;;;;;;;9.40;99.90;;;;;;5007631;28;19917;-78
2022/12/28 12:24:28;;;;;;;;;;;9.30;99.90;;;;;;5017949;28;19964;-79
2022/12/28 12:27:12;;;;;;;;;;;9.30;99.90;;;;;;5021401;28;19967;-79
2022/12/28 12:29:48;;;;;;;;;;;9.30;99.90;;;;;;5016001;28;19925;-79
2022/12/28 12:32:16;;;;;;;;;;;9.30;99.90;;;;;;5018728;28;19921;-79
2022/12/28 12:34:48;;;;;;;;;;;9.40;99.90;;;;;;5023800;28;19964;-78
2022/12/28 12:37:33;;;;;;;;;;;9.30;99.90;;;;;;5019367;28;19917;-79
2022/12/28 12:40:17;;;;;;;;;;;9.20;99.90;;;;;;5001726;28;20003;-79
2022/12/28 12:43:03;;;;;;;;;;;9.30;99.90;;;;;;5019741;28;19924;-79
2022/12/28 12:45:35;;;;;;;;;;;9.30;99.90;;;;;;5023634;28;20053;-79
2022/12/28 12:48:03;;;;;;;;;;;9.40;99.90;;;;;;5001165;28;19928;-79
2022/12/28 12:50:32;;;;;;;;;;;9.40;99.90;;;;;;5019241;28;20380;-79
2022/12/28 12:52:58;;;;;;;;;;;9.30;99.90;;;;;;5023290;28;20008;-79
2022/12/28 12:55:41;;;;;;;;;;;9.30;99.90;;;;;;5007174;28;20044;-79
2022/12/28 12:58:13;;;;;;;;;;;9.30;99.90;;;;;;5020542;28;19924;-79
2022/12/28 13:00:42;;;;;;;;;;;9.30;99.90;;;;;;5019645;28;20039;-79
2022/12/28 13:03:26;;;;;;;;;;;9.30;99.90;;;;;;5023317;28;19917;-79
2022/12/28 13:05:53;;;;;;;;;;;9.30;99.90;;;;;;5019857;28;19949;-80
2022/12/28 13:08:41;;;;;;;;;;;9.30;99.90;;;;;;5020934;28;19917;-80
2022/12/28 13:11:08;;;;;;;;;;;9.40;99.90;;;;;;5004080;28;19917;-79
2022/12/28 13:13:35;;;;;;;;;;;9.40;99.90;;;;;;5007186;28;19918;-79
2022/12/28 13:16:02;;;;;;;;;;;9.40;99.90;;;;;;5020992;28;19917;-79
2022/12/28 13:18:28;;;;;;;;;;;9.40;99.90;;;;;;5022355;28;19974;-79
2022/12/28 13:20:59;;;;;;;;;;;9.40;99.90;;;;;;5003694;28;20008;-79
2022/12/28 13:23:25;;;;;;;;;;;9.30;99.90;;;;;;5022819;28;19918;-78
2022/12/28 13:25:52;;;;;;;;;;;9.30;99.90;;;;;;5003361;28;19917;-79
2022/12/28 13:28:28;;;;;;;;;;;9.40;99.90;;;;;;5006264;28;20336;-79
2022/12/28 13:30:56;;;;;;;;;;;9.30;99.90;;;;;;5016045;28;20024;-79
2022/12/28 13:33:21;;;;;;;;;;;9.30;99.90;;;;;;5020756;28;19944;-80
2022/12/28 13:35:47;;;;;;;;;;;9.20;99.90;;;;;;5002601;28;19917;-80
2022/12/28 13:38:14;;;;;;;;;;;9.30;99.90;;;;;;5020399;28;19917;-81
2022/12/28 13:40:47;;;;;;;;;;;9.30;99.90;;;;;;5018303;28;19917;-81
2022/12/28 13:43:36;;;;;;;;;;;9.30;99.90;;;;;;5000586;28;19918;-82
2022/12/28 13:46:06;;;;;;;;;;;9.30;99.90;;;;;;4979215;28;19917;-81
2022/12/28 13:48:33;;;;;;;;;;;9.30;99.90;;;;;;5025736;28;20369;-79
2022/12/28 13:50:59;;;;;;;;;;;9.30;99.90;;;;;;5022267;28;19921;-79
2022/12/28 13:53:26;;;;;;;;;;;9.20;99.90;;;;;;5008650;28;19995;-80
2022/12/28 13:55:53;;;;;;;;;;;9.30;99.90;;;;;;5025889;28;19971;-81
2022/12/28 13:58:34;;;;;;;;;;;9.30;99.90;;;;;;4999598;28;19925;-80
2022/12/28 14:01:01;;;;;;;;;;;9.20;99.90;;;;;;5004101;28;19918;-81
2022/12/28 14:03:28;;;;;;;;;;;9.30;99.90;;;;;;5013103;28;19921;-80
2022/12/28 14:05:58;;;;;;;;;;;9.20;99.90;;;;;;5025698;28;20015;-79
2022/12/28 14:08:25;;;;;;;;;;;9.30;99.90;;;;;;5021132;28;20402;-80
2022/12/28 14:10:50;;;;;;;;;;;9.20;99.90;;;;;;5013202;28;19917;-79
2022/12/28 14:13:17;;;;;;;;;;;9.20;99.90;;;;;;5019945;28;20404;-80
2022/12/28 14:15:43;;;;;;;;;;;9.20;99.90;;;;;;5005866;28;19924;-80
2022/12/28 14:18:12;;;;;;;;;;;9.20;99.90;;;;;;5004731;28;19996;-79
2022/12/28 14:20:48;;;;;;;;;;;9.20;99.90;;;;;;5003192;28;19926;-79
2022/12/28 14:23:25;;;;;;;;;;;9.20;99.90;;;;;;5006378;28;19924;-80
2022/12/28 14:25:51;;;;;;;;;;;9.20;99.90;;;;;;5019137;28;20257;-79
2022/12/28 14:28:26;;;;;;;;;;;9.10;99.90;;;;;;5020053;28;19917;-79
2022/12/28 14:30:53;;;;;;;;;;;9.20;99.90;;;;;;5024276;28;20293;-80
2022/12/28 14:33:25;;;;;;;;;;;9.20;99.90;;;;;;5018910;28;19928;-78
2022/12/28 14:36:04;;;;;;;;;;;9.10;99.90;;;;;;5018874;28;20039;-80
2022/12/28 14:38:34;;;;;;;;;;;9.10;99.90;;;;;;5005920;28;20073;-79
2022/12/28 14:41:00;;;;;;;;;;;9.10;99.90;;;;;;5020079;28;19963;-81
2022/12/28 14:43:27;;;;;;;;;;;9.00;99.90;;;;;;5024234;28;20350;-80
2022/12/28 14:45:53;;;;;;;;;;;9.00;99.90;;;;;;5019988;28;20354;-80
2022/12/28 14:48:23;;;;;;;;;;;9.10;99.90;;;;;;5021921;28;19952;-79